sensor_id;sensor_type;location;lat;lon;timestamp;P1;durP1;ratioP1;P2;durP2;ratioP2
11921;SDS011;6021;51.182;3.160;2023-06-14T00:01:44;6.10;;;3.90;;
11921;SDS011;6021;51.182;3.160;2023-06-14T00:04:13;4.67;;;4.07;;
11921;SDS011;6021;51.182;3.160;2023-06-14T00:06:47;6.73;;;3.90;;
11921;SDS011;6021;51.182;3.160;2023-06-14T00:09:17;4.43;;;4.00;;
11921;SDS011;6021;51.182;3.160;2023-06-14T00:11:45;5.27;;;3.73;;
11921;SDS011;6021;51.182;3.160;2023-06-14T00:14:14;4.23;;;3.83;;
11921;SDS011;6021;51.182;3.160;2023-06-14T00:16:42;4.37;;;3.97;;
11921;SDS011;6021;51.182;3.160;2023-06-14T00:19:10;4.03;;;3.63;;
11921;SDS011;6021;51.182;3.160;2023-06-14T00:21:38;5.83;;;4.00;;
11921;SDS011;6021;51.182;3.160;2023-06-14T00:24:08;5.13;;;4.13;;
11921;SDS011;6021;51.182;3.160;2023-06-14T00:26:36;5.97;;;3.97;;
11921;SDS011;6021;51.182;3.160;2023-06-14T00:29:04;5.07;;;3.70;;
11921;SDS011;6021;51.182;3.160;2023-06-14T00:31:33;8.27;;;3.97;;
11921;SDS011;6021;51.182;3.160;2023-06-14T00:34:01;5.03;;;3.63;;
11921;SDS011;6021;51.182;3.160;2023-06-14T00:36:29;4.83;;;4.00;;
11921;SDS011;6021;51.182;3.160;2023-06-14T00:38:58;3.93;;;3.47;;
11921;SDS011;6021;51.182;3.160;2023-06-14T00:41:26;5.73;;;4.10;;
11921;SDS011;6021;51.182;3.160;2023-06-14T00:43:54;4.90;;;3.70;;
11921;SDS011;6021;51.182;3.160;2023-06-14T00:46:23;5.47;;;3.80;;
11921;SDS011;6021;51.182;3.160;2023-06-14T00:48:51;4.20;;;3.53;;
11921;SDS011;6021;51.182;3.160;2023-06-14T00:51:21;5.23;;;3.90;;
11921;SDS011;6021;51.182;3.160;2023-06-14T00:53:50;6.40;;;4.00;;
11921;SDS011;6021;51.182;3.160;2023-06-14T00:56:18;5.13;;;3.53;;
11921;SDS011;6021;51.182;3.160;2023-06-14T00:58:47;4.67;;;3.93;;
11921;SDS011;6021;51.182;3.160;2023-06-14T01:01:16;6.67;;;4.07;;
11921;SDS011;6021;51.182;3.160;2023-06-14T01:03:44;3.97;;;3.57;;
11921;SDS011;6021;51.182;3.160;2023-06-14T01:09:14;5.17;;;3.90;;
11921;SDS011;6021;51.182;3.160;2023-06-14T01:12:00;5.13;;;3.67;;
11921;SDS011;6021;51.182;3.160;2023-06-14T01:14:30;5.23;;;3.97;;
11921;SDS011;6021;51.182;3.160;2023-06-14T01:17:01;5.60;;;3.90;;
11921;SDS011;6021;51.182;3.160;2023-06-14T01:19:32;3.97;;;3.67;;
11921;SDS011;6021;51.182;3.160;2023-06-14T01:22:01;4.67;;;3.80;;
11921;SDS011;6021;51.182;3.160;2023-06-14T01:24:30;4.83;;;3.80;;
11921;SDS011;6021;51.182;3.160;2023-06-14T01:27:00;5.47;;;3.93;;
11921;SDS011;6021;51.182;3.160;2023-06-14T01:29:29;4.17;;;3.80;;
11921;SDS011;6021;51.182;3.160;2023-06-14T01:32:02;4.63;;;3.70;;
11921;SDS011;6021;51.182;3.160;2023-06-14T01:34:31;4.10;;;3.70;;
11921;SDS011;6021;51.182;3.160;2023-06-14T01:37:00;4.20;;;3.80;;
11921;SDS011;6021;51.182;3.160;2023-06-14T01:39:29;4.20;;;3.80;;
11921;SDS011;6021;51.182;3.160;2023-06-14T01:41:59;7.03;;;4.27;;
11921;SDS011;6021;51.182;3.160;2023-06-14T01:44:28;4.40;;;3.87;;
11921;SDS011;6021;51.182;3.160;2023-06-14T01:46:58;4.33;;;3.60;;
11921;SDS011;6021;51.182;3.160;2023-06-14T01:49:27;5.87;;;3.73;;
11921;SDS011;6021;51.182;3.160;2023-06-14T01:51:55;4.23;;;3.83;;
11921;SDS011;6021;51.182;3.160;2023-06-14T01:54:23;4.77;;;4.10;;
11921;SDS011;6021;51.182;3.160;2023-06-14T01:56:52;4.87;;;4.03;;
11921;SDS011;6021;51.182;3.160;2023-06-14T01:59:20;4.63;;;3.83;;
11921;SDS011;6021;51.182;3.160;2023-06-14T02:01:49;4.90;;;3.90;;
11921;SDS011;6021;51.182;3.160;2023-06-14T02:04:18;4.53;;;3.97;;
11921;SDS011;6021;51.182;3.160;2023-06-14T02:06:46;5.53;;;4.00;;
11921;SDS011;6021;51.182;3.160;2023-06-14T02:09:14;4.93;;;3.70;;
11921;SDS011;6021;51.182;3.160;2023-06-14T02:11:44;4.17;;;3.77;;
11921;SDS011;6021;51.182;3.160;2023-06-14T02:14:12;6.33;;;4.00;;
11921;SDS011;6021;51.182;3.160;2023-06-14T02:16:41;4.40;;;4.00;;
11921;SDS011;6021;51.182;3.160;2023-06-14T02:19:11;4.27;;;3.70;;
11921;SDS011;6021;51.182;3.160;2023-06-14T02:21:39;3.80;;;3.50;;
11921;SDS011;6021;51.182;3.160;2023-06-14T02:24:08;4.53;;;3.77;;
11921;SDS011;6021;51.182;3.160;2023-06-14T02:26:36;5.43;;;4.20;;
11921;SDS011;6021;51.182;3.160;2023-06-14T02:29:05;4.63;;;4.10;;
11921;SDS011;6021;51.182;3.160;2023-06-14T02:31:35;5.00;;;3.90;;
11921;SDS011;6021;51.182;3.160;2023-06-14T02:34:04;4.40;;;4.00;;
11921;SDS011;6021;51.182;3.160;2023-06-14T02:36:34;5.07;;;4.10;;
11921;SDS011;6021;51.182;3.160;2023-06-14T02:39:04;6.10;;;4.17;;
11921;SDS011;6021;51.182;3.160;2023-06-14T02:41:32;5.37;;;4.20;;
11921;SDS011;6021;51.182;3.160;2023-06-14T02:44:01;4.00;;;3.70;;
11921;SDS011;6021;51.182;3.160;2023-06-14T02:46:30;5.43;;;4.00;;
11921;SDS011;6021;51.182;3.160;2023-06-14T02:48:58;5.37;;;4.23;;
11921;SDS011;6021;51.182;3.160;2023-06-14T02:51:27;6.77;;;4.07;;
11921;SDS011;6021;51.182;3.160;2023-06-14T02:53:55;4.87;;;3.90;;
11921;SDS011;6021;51.182;3.160;2023-06-14T02:56:24;5.87;;;4.13;;
11921;SDS011;6021;51.182;3.160;2023-06-14T02:58:52;4.50;;;4.10;;
11921;SDS011;6021;51.182;3.160;2023-06-14T03:01:21;5.03;;;4.03;;
11921;SDS011;6021;51.182;3.160;2023-06-14T03:03:49;5.17;;;4.07;;
11921;SDS011;6021;51.182;3.160;2023-06-14T03:06:18;4.23;;;3.83;;
11921;SDS011;6021;51.182;3.160;2023-06-14T03:08:46;5.90;;;4.00;;
11921;SDS011;6021;51.182;3.160;2023-06-14T03:11:15;6.47;;;4.37;;
11921;SDS011;6021;51.182;3.160;2023-06-14T03:13:45;4.77;;;4.00;;
11921;SDS011;6021;51.182;3.160;2023-06-14T03:16:13;4.20;;;3.67;;
11921;SDS011;6021;51.182;3.160;2023-06-14T03:18:43;5.50;;;4.03;;
11921;SDS011;6021;51.182;3.160;2023-06-14T03:21:12;4.13;;;3.73;;
11921;SDS011;6021;51.182;3.160;2023-06-14T03:23:42;5.67;;;3.97;;
11921;SDS011;6021;51.182;3.160;2023-06-14T03:26:11;4.10;;;3.73;;
11921;SDS011;6021;51.182;3.160;2023-06-14T03:28:49;4.17;;;3.77;;
11921;SDS011;6021;51.182;3.160;2023-06-14T03:31:16;4.50;;;4.03;;
11921;SDS011;6021;51.182;3.160;2023-06-14T03:33:45;4.57;;;4.07;;
11921;SDS011;6021;51.182;3.160;2023-06-14T03:36:14;4.47;;;3.93;;
11921;SDS011;6021;51.182;3.160;2023-06-14T03:38:42;4.23;;;3.83;;
11921;SDS011;6021;51.182;3.160;2023-06-14T03:41:10;4.10;;;3.60;;
11921;SDS011;6021;51.182;3.160;2023-06-14T03:43:39;6.07;;;3.80;;
11921;SDS011;6021;51.182;3.160;2023-06-14T03:46:07;4.50;;;3.93;;
11921;SDS011;6021;51.182;3.160;2023-06-14T03:48:36;4.30;;;3.50;;
11921;SDS011;6021;51.182;3.160;2023-06-14T03:51:05;4.20;;;3.87;;
11921;SDS011;6021;51.182;3.160;2023-06-14T03:53:33;5.37;;;4.10;;
11921;SDS011;6021;51.182;3.160;2023-06-14T03:56:02;5.20;;;3.93;;
11921;SDS011;6021;51.182;3.160;2023-06-14T03:58:31;5.60;;;4.10;;
11921;SDS011;6021;51.182;3.160;2023-06-14T04:00:59;5.13;;;4.20;;
11921;SDS011;6021;51.182;3.160;2023-06-14T04:03:28;5.27;;;3.87;;
11921;SDS011;6021;51.182;3.160;2023-06-14T04:05:56;4.80;;;4.10;;
11921;SDS011;6021;51.182;3.160;2023-06-14T04:08:26;4.83;;;3.97;;
11921;SDS011;6021;51.182;3.160;2023-06-14T04:10:54;5.33;;;4.00;;
11921;SDS011;6021;51.182;3.160;2023-06-14T04:13:22;4.27;;;3.80;;
11921;SDS011;6021;51.182;3.160;2023-06-14T04:15:51;5.27;;;4.07;;
11921;SDS011;6021;51.182;3.160;2023-06-14T04:18:19;6.70;;;4.53;;
11921;SDS011;6021;51.182;3.160;2023-06-14T04:20:48;5.20;;;4.17;;
11921;SDS011;6021;51.182;3.160;2023-06-14T04:23:17;4.43;;;4.03;;
11921;SDS011;6021;51.182;3.160;2023-06-14T04:25:45;4.30;;;3.90;;
11921;SDS011;6021;51.182;3.160;2023-06-14T04:28:15;5.03;;;4.17;;
11921;SDS011;6021;51.182;3.160;2023-06-14T04:30:45;4.40;;;3.93;;
11921;SDS011;6021;51.182;3.160;2023-06-14T04:33:13;6.47;;;4.20;;
11921;SDS011;6021;51.182;3.160;2023-06-14T04:35:42;4.80;;;4.07;;
11921;SDS011;6021;51.182;3.160;2023-06-14T04:38:12;5.17;;;4.07;;
11921;SDS011;6021;51.182;3.160;2023-06-14T04:40:41;6.77;;;4.20;;
11921;SDS011;6021;51.182;3.160;2023-06-14T04:43:10;3.90;;;3.60;;
11921;SDS011;6021;51.182;3.160;2023-06-14T04:45:39;4.93;;;4.10;;
11921;SDS011;6021;51.182;3.160;2023-06-14T04:48:09;4.10;;;3.80;;
11921;SDS011;6021;51.182;3.160;2023-06-14T04:50:38;4.67;;;4.10;;
11921;SDS011;6021;51.182;3.160;2023-06-14T04:53:07;5.97;;;4.40;;
11921;SDS011;6021;51.182;3.160;2023-06-14T04:55:37;5.47;;;4.57;;
11921;SDS011;6021;51.182;3.160;2023-06-14T04:58:06;4.50;;;3.97;;
11921;SDS011;6021;51.182;3.160;2023-06-14T05:00:34;4.47;;;4.07;;
11921;SDS011;6021;51.182;3.160;2023-06-14T05:03:04;4.37;;;3.97;;
11921;SDS011;6021;51.182;3.160;2023-06-14T05:05:33;4.97;;;4.47;;
11921;SDS011;6021;51.182;3.160;2023-06-14T05:08:01;4.30;;;3.83;;
11921;SDS011;6021;51.182;3.160;2023-06-14T05:10:30;6.03;;;4.23;;
11921;SDS011;6021;51.182;3.160;2023-06-14T05:12:58;4.33;;;3.93;;
11921;SDS011;6021;51.182;3.160;2023-06-14T05:15:27;4.67;;;4.27;;
11921;SDS011;6021;51.182;3.160;2023-06-14T05:17:55;4.53;;;3.63;;
11921;SDS011;6021;51.182;3.160;2023-06-14T05:20:24;4.27;;;3.87;;
11921;SDS011;6021;51.182;3.160;2023-06-14T05:22:53;4.27;;;3.77;;
11921;SDS011;6021;51.182;3.160;2023-06-14T05:25:23;4.23;;;3.83;;
11921;SDS011;6021;51.182;3.160;2023-06-14T05:27:52;4.10;;;3.70;;
11921;SDS011;6021;51.182;3.160;2023-06-14T05:30:20;5.80;;;4.03;;
11921;SDS011;6021;51.182;3.160;2023-06-14T05:32:48;6.13;;;4.03;;
11921;SDS011;6021;51.182;3.160;2023-06-14T05:35:17;4.60;;;4.20;;
11921;SDS011;6021;51.182;3.160;2023-06-14T05:37:45;4.20;;;3.80;;
11921;SDS011;6021;51.182;3.160;2023-06-14T05:40:14;4.67;;;3.90;;
11921;SDS011;6021;51.182;3.160;2023-06-14T05:42:44;5.17;;;4.37;;
11921;SDS011;6021;51.182;3.160;2023-06-14T05:45:13;4.33;;;3.93;;
11921;SDS011;6021;51.182;3.160;2023-06-14T05:47:42;4.97;;;3.87;;
11921;SDS011;6021;51.182;3.160;2023-06-14T05:50:10;4.50;;;4.10;;
11921;SDS011;6021;51.182;3.160;2023-06-14T05:52:39;6.23;;;4.17;;
11921;SDS011;6021;51.182;3.160;2023-06-14T05:55:07;4.73;;;4.27;;
11921;SDS011;6021;51.182;3.160;2023-06-14T05:57:38;7.17;;;4.40;;
11921;SDS011;6021;51.182;3.160;2023-06-14T06:00:07;4.77;;;4.30;;
11921;SDS011;6021;51.182;3.160;2023-06-14T06:02:37;7.60;;;4.43;;
11921;SDS011;6021;51.182;3.160;2023-06-14T06:05:06;4.67;;;4.27;;
11921;SDS011;6021;51.182;3.160;2023-06-14T06:07:35;4.30;;;3.90;;
11921;SDS011;6021;51.182;3.160;2023-06-14T06:10:04;5.30;;;4.10;;
11921;SDS011;6021;51.182;3.160;2023-06-14T06:12:33;5.27;;;4.73;;
11921;SDS011;6021;51.182;3.160;2023-06-14T06:15:01;6.20;;;5.60;;
11921;SDS011;6021;51.182;3.160;2023-06-14T06:17:30;5.43;;;4.90;;
11921;SDS011;6021;51.182;3.160;2023-06-14T06:19:58;5.83;;;5.23;;
11921;SDS011;6021;51.182;3.160;2023-06-14T06:22:27;6.57;;;5.30;;
11921;SDS011;6021;51.182;3.160;2023-06-14T06:24:55;6.10;;;4.73;;
11921;SDS011;6021;51.182;3.160;2023-06-14T06:27:24;7.73;;;5.33;;
11921;SDS011;6021;51.182;3.160;2023-06-14T06:29:52;5.73;;;5.00;;
11921;SDS011;6021;51.182;3.160;2023-06-14T06:32:21;5.37;;;4.87;;
11921;SDS011;6021;51.182;3.160;2023-06-14T06:34:49;7.50;;;4.90;;
11921;SDS011;6021;51.182;3.160;2023-06-14T06:37:19;5.40;;;4.70;;
11921;SDS011;6021;51.182;3.160;2023-06-14T06:39:47;8.73;;;5.10;;
11921;SDS011;6021;51.182;3.160;2023-06-14T06:42:15;4.80;;;4.40;;
11921;SDS011;6021;51.182;3.160;2023-06-14T06:44:44;8.60;;;4.90;;
11921;SDS011;6021;51.182;3.160;2023-06-14T06:47:13;6.43;;;4.40;;
11921;SDS011;6021;51.182;3.160;2023-06-14T06:49:41;6.43;;;4.80;;
11921;SDS011;6021;51.182;3.160;2023-06-14T06:52:10;6.33;;;4.90;;
11921;SDS011;6021;51.182;3.160;2023-06-14T06:54:38;5.80;;;4.53;;
11921;SDS011;6021;51.182;3.160;2023-06-14T06:57:07;9.00;;;5.20;;
11921;SDS011;6021;51.182;3.160;2023-06-14T06:59:37;6.30;;;5.07;;
11921;SDS011;6021;51.182;3.160;2023-06-14T07:02:05;6.43;;;4.77;;
11921;SDS011;6021;51.182;3.160;2023-06-14T07:04:34;7.13;;;4.70;;
11921;SDS011;6021;51.182;3.160;2023-06-14T07:07:02;6.50;;;5.03;;
11921;SDS011;6021;51.182;3.160;2023-06-14T07:09:31;7.20;;;4.67;;
11921;SDS011;6021;51.182;3.160;2023-06-14T07:11:59;5.90;;;4.77;;
11921;SDS011;6021;51.182;3.160;2023-06-14T07:14:27;11.40;;;5.03;;
11921;SDS011;6021;51.182;3.160;2023-06-14T07:16:56;5.43;;;4.80;;
11921;SDS011;6021;51.182;3.160;2023-06-14T07:19:25;6.63;;;5.30;;
11921;SDS011;6021;51.182;3.160;2023-06-14T07:21:53;6.07;;;4.73;;
11921;SDS011;6021;51.182;3.160;2023-06-14T07:24:21;5.07;;;4.50;;
11921;SDS011;6021;51.182;3.160;2023-06-14T07:26:50;6.73;;;4.83;;
11921;SDS011;6021;51.182;3.160;2023-06-14T07:29:18;5.00;;;4.50;;
11921;SDS011;6021;51.182;3.160;2023-06-14T07:31:47;5.83;;;5.23;;
11921;SDS011;6021;51.182;3.160;2023-06-14T07:34:16;5.67;;;5.10;;
11921;SDS011;6021;51.182;3.160;2023-06-14T07:36:44;6.57;;;5.03;;
11921;SDS011;6021;51.182;3.160;2023-06-14T07:39:14;4.53;;;4.00;;
11921;SDS011;6021;51.182;3.160;2023-06-14T07:41:42;6.17;;;4.30;;
11921;SDS011;6021;51.182;3.160;2023-06-14T07:44:10;7.10;;;4.60;;
11921;SDS011;6021;51.182;3.160;2023-06-14T07:46:40;7.57;;;5.13;;
11921;SDS011;6021;51.182;3.160;2023-06-14T07:49:08;7.30;;;5.40;;
11921;SDS011;6021;51.182;3.160;2023-06-14T07:51:36;5.37;;;4.87;;
11921;SDS011;6021;51.182;3.160;2023-06-14T07:54:05;5.47;;;4.60;;
11921;SDS011;6021;51.182;3.160;2023-06-14T07:56:35;4.97;;;4.40;;
11921;SDS011;6021;51.182;3.160;2023-06-14T07:59:03;8.57;;;4.73;;
11921;SDS011;6021;51.182;3.160;2023-06-14T08:01:32;7.50;;;5.20;;
11921;SDS011;6021;51.182;3.160;2023-06-14T08:04:00;8.43;;;5.00;;
11921;SDS011;6021;51.182;3.160;2023-06-14T08:06:29;6.83;;;5.13;;
11921;SDS011;6021;51.182;3.160;2023-06-14T08:08:57;6.90;;;4.63;;
11921;SDS011;6021;51.182;3.160;2023-06-14T08:11:26;5.50;;;4.40;;
11921;SDS011;6021;51.182;3.160;2023-06-14T08:13:54;5.47;;;4.57;;
11921;SDS011;6021;51.182;3.160;2023-06-14T08:16:22;6.17;;;4.73;;
11921;SDS011;6021;51.182;3.160;2023-06-14T08:18:51;7.93;;;4.73;;
11921;SDS011;6021;51.182;3.160;2023-06-14T08:21:19;7.27;;;4.60;;
11921;SDS011;6021;51.182;3.160;2023-06-14T08:23:47;6.40;;;5.03;;
11921;SDS011;6021;51.182;3.160;2023-06-14T08:26:17;5.03;;;4.63;;
11921;SDS011;6021;51.182;3.160;2023-06-14T08:28:46;5.13;;;4.57;;
11921;SDS011;6021;51.182;3.160;2023-06-14T08:31:14;6.63;;;4.80;;
11921;SDS011;6021;51.182;3.160;2023-06-14T08:33:45;5.73;;;4.43;;
11921;SDS011;6021;51.182;3.160;2023-06-14T08:36:14;4.87;;;4.37;;
11921;SDS011;6021;51.182;3.160;2023-06-14T08:38:42;5.57;;;4.77;;
11921;SDS011;6021;51.182;3.160;2023-06-14T08:41:11;5.43;;;4.67;;
11921;SDS011;6021;51.182;3.160;2023-06-14T08:43:41;5.10;;;4.60;;
11921;SDS011;6021;51.182;3.160;2023-06-14T08:46:09;7.37;;;4.60;;
11921;SDS011;6021;51.182;3.160;2023-06-14T08:48:38;5.03;;;4.50;;
11921;SDS011;6021;51.182;3.160;2023-06-14T08:51:08;5.73;;;4.67;;
11921;SDS011;6021;51.182;3.160;2023-06-14T08:53:38;5.00;;;4.50;;
11921;SDS011;6021;51.182;3.160;2023-06-14T08:56:08;5.60;;;4.47;;
11921;SDS011;6021;51.182;3.160;2023-06-14T08:58:40;5.33;;;4.60;;
11921;SDS011;6021;51.182;3.160;2023-06-14T09:01:11;7.30;;;4.90;;
11921;SDS011;6021;51.182;3.160;2023-06-14T09:03:41;5.40;;;4.90;;
11921;SDS011;6021;51.182;3.160;2023-06-14T09:06:09;5.60;;;5.10;;
11921;SDS011;6021;51.182;3.160;2023-06-14T09:08:42;5.97;;;5.37;;
11921;SDS011;6021;51.182;3.160;2023-06-14T09:11:16;6.83;;;4.73;;
11921;SDS011;6021;51.182;3.160;2023-06-14T09:13:41;6.57;;;4.83;;
11921;SDS011;6021;51.182;3.160;2023-06-14T09:16:10;5.70;;;4.43;;
11921;SDS011;6021;51.182;3.160;2023-06-14T09:21:20;6.77;;;5.27;;
11921;SDS011;6021;51.182;3.160;2023-06-14T09:23:45;6.57;;;5.20;;
11921;SDS011;6021;51.182;3.160;2023-06-14T09:26:18;6.10;;;4.83;;
11921;SDS011;6021;51.182;3.160;2023-06-14T09:28:47;5.23;;;4.60;;
11921;SDS011;6021;51.182;3.160;2023-06-14T09:31:19;5.40;;;4.90;;
11921;SDS011;6021;51.182;3.160;2023-06-14T09:33:48;5.13;;;4.57;;
11921;SDS011;6021;51.182;3.160;2023-06-14T09:36:18;6.10;;;4.43;;
11921;SDS011;6021;51.182;3.160;2023-06-14T09:41:37;5.53;;;4.30;;
11921;SDS011;6021;51.182;3.160;2023-06-14T09:44:10;5.00;;;3.97;;
11921;SDS011;6021;51.182;3.160;2023-06-14T09:46:41;6.07;;;4.50;;
11921;SDS011;6021;51.182;3.160;2023-06-14T09:49:10;5.07;;;4.37;;
11921;SDS011;6021;51.182;3.160;2023-06-14T09:51:43;8.30;;;4.60;;
11921;SDS011;6021;51.182;3.160;2023-06-14T09:54:20;5.23;;;4.30;;
11921;SDS011;6021;51.182;3.160;2023-06-14T09:56:46;4.80;;;4.40;;
11921;SDS011;6021;51.182;3.160;2023-06-14T09:59:25;6.17;;;4.50;;
11921;SDS011;6021;51.182;3.160;2023-06-14T10:01:50;4.47;;;4.03;;
11921;SDS011;6021;51.182;3.160;2023-06-14T10:04:19;4.50;;;4.10;;
11921;SDS011;6021;51.182;3.160;2023-06-14T10:06:49;4.90;;;4.07;;
11921;SDS011;6021;51.182;3.160;2023-06-14T10:09:19;6.20;;;4.23;;
11921;SDS011;6021;51.182;3.160;2023-06-14T10:11:48;5.17;;;4.67;;
11921;SDS011;6021;51.182;3.160;2023-06-14T10:14:17;4.67;;;4.27;;
11921;SDS011;6021;51.182;3.160;2023-06-14T10:16:49;5.63;;;4.57;;
11921;SDS011;6021;51.182;3.160;2023-06-14T10:19:22;6.03;;;4.30;;
11921;SDS011;6021;51.182;3.160;2023-06-14T10:25:06;4.90;;;4.40;;
11921;SDS011;6021;51.182;3.160;2023-06-14T10:27:38;6.73;;;4.50;;
11921;SDS011;6021;51.182;3.160;2023-06-14T10:30:08;4.90;;;4.43;;
11921;SDS011;6021;51.182;3.160;2023-06-14T10:32:47;6.27;;;4.37;;
11921;SDS011;6021;51.182;3.160;2023-06-14T10:35:08;5.43;;;4.50;;
11921;SDS011;6021;51.182;3.160;2023-06-14T10:37:38;6.97;;;4.47;;
11921;SDS011;6021;51.182;3.160;2023-06-14T10:40:07;5.50;;;4.33;;
11921;SDS011;6021;51.182;3.160;2023-06-14T10:42:38;6.20;;;4.37;;
11921;SDS011;6021;51.182;3.160;2023-06-14T10:45:10;4.90;;;4.50;;
11921;SDS011;6021;51.182;3.160;2023-06-14T10:47:40;5.90;;;4.33;;
11921;SDS011;6021;51.182;3.160;2023-06-14T10:50:09;6.25;;;4.60;;
11921;SDS011;6021;51.182;3.160;2023-06-14T10:52:41;6.97;;;4.57;;
11921;SDS011;6021;51.182;3.160;2023-06-14T10:55:14;7.50;;;4.70;;
11921;SDS011;6021;51.182;3.160;2023-06-14T11:00:18;5.87;;;4.60;;
11921;SDS011;6021;51.182;3.160;2023-06-14T11:09:24;9.77;;;4.10;;
11921;SDS011;6021;51.182;3.160;2023-06-14T11:11:05;4.63;;;4.10;;
11921;SDS011;6021;51.182;3.160;2023-06-14T11:13:39;5.13;;;4.50;;
11921;SDS011;6021;51.182;3.160;2023-06-14T11:16:17;6.50;;;4.70;;
11921;SDS011;6021;51.182;3.160;2023-06-14T11:18:42;5.33;;;4.73;;
11921;SDS011;6021;51.182;3.160;2023-06-14T11:21:16;5.10;;;4.47;;
11921;SDS011;6021;51.182;3.160;2023-06-14T11:23:51;5.23;;;4.40;;
11921;SDS011;6021;51.182;3.160;2023-06-14T11:26:28;4.62;;;4.20;;
11921;SDS011;6021;51.182;3.160;2023-06-14T11:29:00;5.97;;;4.53;;
11921;SDS011;6021;51.182;3.160;2023-06-14T11:31:28;5.37;;;4.60;;
11921;SDS011;6021;51.182;3.160;2023-06-14T11:33:58;5.08;;;4.58;;
11921;SDS011;6021;51.182;3.160;2023-06-14T11:36:33;5.67;;;4.63;;
11921;SDS011;6021;51.182;3.160;2023-06-14T11:39:04;5.80;;;4.23;;
11921;SDS011;6021;51.182;3.160;2023-06-14T11:41:39;9.48;;;4.83;;
11921;SDS011;6021;51.182;3.160;2023-06-14T11:44:11;6.05;;;4.53;;
11921;SDS011;6021;51.182;3.160;2023-06-14T11:46:39;6.95;;;4.50;;
11921;SDS011;6021;51.182;3.160;2023-06-14T11:49:08;5.57;;;4.40;;
11921;SDS011;6021;51.182;3.160;2023-06-14T11:51:36;4.50;;;4.10;;
11921;SDS011;6021;51.182;3.160;2023-06-14T11:54:06;6.10;;;4.47;;
11921;SDS011;6021;51.182;3.160;2023-06-14T11:56:36;5.43;;;4.80;;
11921;SDS011;6021;51.182;3.160;2023-06-14T11:59:05;5.63;;;4.40;;
11921;SDS011;6021;51.182;3.160;2023-06-14T12:01:35;6.67;;;4.53;;
11921;SDS011;6021;51.182;3.160;2023-06-14T12:04:05;4.63;;;4.23;;
11921;SDS011;6021;51.182;3.160;2023-06-14T12:06:34;5.93;;;4.50;;
11921;SDS011;6021;51.182;3.160;2023-06-14T12:09:06;6.00;;;4.33;;
11921;SDS011;6021;51.182;3.160;2023-06-14T12:11:40;6.60;;;4.70;;
11921;SDS011;6021;51.182;3.160;2023-06-14T12:14:08;5.17;;;4.60;;
11921;SDS011;6021;51.182;3.160;2023-06-14T12:16:40;4.63;;;4.20;;
11921;SDS011;6021;51.182;3.160;2023-06-14T12:19:09;6.57;;;4.50;;
11921;SDS011;6021;51.182;3.160;2023-06-14T12:21:42;4.62;;;4.20;;
11921;SDS011;6021;51.182;3.160;2023-06-14T12:24:13;5.53;;;4.42;;
11921;SDS011;6021;51.182;3.160;2023-06-14T12:26:41;5.40;;;4.60;;
11921;SDS011;6021;51.182;3.160;2023-06-14T12:29:10;5.80;;;4.17;;
11921;SDS011;6021;51.182;3.160;2023-06-14T12:31:39;6.27;;;4.40;;
11921;SDS011;6021;51.182;3.160;2023-06-14T12:34:08;4.97;;;4.50;;
11921;SDS011;6021;51.182;3.160;2023-06-14T12:36:37;7.12;;;4.55;;
11921;SDS011;6021;51.182;3.160;2023-06-14T12:39:07;5.08;;;4.58;;
11921;SDS011;6021;51.182;3.160;2023-06-14T12:41:35;4.60;;;4.20;;
11921;SDS011;6021;51.182;3.160;2023-06-14T12:44:04;4.78;;;4.17;;
11921;SDS011;6021;51.182;3.160;2023-06-14T12:46:32;4.92;;;4.37;;
11921;SDS011;6021;51.182;3.160;2023-06-14T12:49:01;4.73;;;4.33;;
11921;SDS011;6021;51.182;3.160;2023-06-14T12:51:30;4.67;;;4.28;;
11921;SDS011;6021;51.182;3.160;2023-06-14T12:53:58;7.00;;;4.30;;
11921;SDS011;6021;51.182;3.160;2023-06-14T12:56:27;4.95;;;4.50;;
11921;SDS011;6021;51.182;3.160;2023-06-14T12:58:55;6.43;;;4.60;;
11921;SDS011;6021;51.182;3.160;2023-06-14T13:01:23;5.55;;;4.65;;
11921;SDS011;6021;51.182;3.160;2023-06-14T13:03:52;5.93;;;4.67;;
11921;SDS011;6021;51.182;3.160;2023-06-14T13:06:21;5.08;;;4.55;;
11921;SDS011;6021;51.182;3.160;2023-06-14T13:08:51;6.10;;;4.63;;
11921;SDS011;6021;51.182;3.160;2023-06-14T13:11:21;6.72;;;4.33;;
11921;SDS011;6021;51.182;3.160;2023-06-14T13:13:49;4.90;;;4.50;;
11921;SDS011;6021;51.182;3.160;2023-06-14T13:16:17;5.05;;;4.17;;
11921;SDS011;6021;51.182;3.160;2023-06-14T13:18:46;4.33;;;3.93;;
11921;SDS011;6021;51.182;3.160;2023-06-14T13:21:14;6.77;;;4.37;;
11921;SDS011;6021;51.182;3.160;2023-06-14T13:23:43;4.90;;;4.45;;
11921;SDS011;6021;51.182;3.160;2023-06-14T13:26:11;5.85;;;4.62;;
11921;SDS011;6021;51.182;3.160;2023-06-14T13:28:39;5.22;;;4.20;;
11921;SDS011;6021;51.182;3.160;2023-06-14T13:31:08;4.65;;;4.22;;
11921;SDS011;6021;51.182;3.160;2023-06-14T13:33:36;6.37;;;4.17;;
11921;SDS011;6021;51.182;3.160;2023-06-14T13:36:05;5.08;;;4.58;;
11921;SDS011;6021;51.182;3.160;2023-06-14T13:38:33;9.57;;;4.90;;
11921;SDS011;6021;51.182;3.160;2023-06-14T13:41:01;5.83;;;4.50;;
11921;SDS011;6021;51.182;3.160;2023-06-14T13:43:30;5.67;;;4.00;;
11921;SDS011;6021;51.182;3.160;2023-06-14T13:45:58;4.83;;;4.20;;
11921;SDS011;6021;51.182;3.160;2023-06-14T13:48:27;5.50;;;4.30;;
11921;SDS011;6021;51.182;3.160;2023-06-14T13:50:55;4.65;;;4.25;;
11921;SDS011;6021;51.182;3.160;2023-06-14T13:53:24;5.60;;;4.60;;
11921;SDS011;6021;51.182;3.160;2023-06-14T13:55:52;6.97;;;4.53;;
11921;SDS011;6021;51.182;3.160;2023-06-14T13:58:21;4.62;;;4.10;;
11921;SDS011;6021;51.182;3.160;2023-06-14T14:00:50;6.50;;;4.47;;
11921;SDS011;6021;51.182;3.160;2023-06-14T14:03:19;5.45;;;4.20;;
11921;SDS011;6021;51.182;3.160;2023-06-14T14:05:48;4.53;;;4.05;;
11921;SDS011;6021;51.182;3.160;2023-06-14T14:08:16;6.65;;;4.22;;
11921;SDS011;6021;51.182;3.160;2023-06-14T14:10:44;6.72;;;4.72;;
11921;SDS011;6021;51.182;3.160;2023-06-14T14:13:13;6.12;;;4.60;;
11921;SDS011;6021;51.182;3.160;2023-06-14T14:15:41;9.25;;;4.80;;
11921;SDS011;6021;51.182;3.160;2023-06-14T14:18:10;6.80;;;4.47;;
11921;SDS011;6021;51.182;3.160;2023-06-14T14:20:38;6.10;;;4.30;;
11921;SDS011;6021;51.182;3.160;2023-06-14T14:23:07;5.58;;;4.00;;
11921;SDS011;6021;51.182;3.160;2023-06-14T14:25:35;7.40;;;4.78;;
11921;SDS011;6021;51.182;3.160;2023-06-14T14:28:04;8.07;;;4.40;;
11921;SDS011;6021;51.182;3.160;2023-06-14T14:30:32;9.50;;;4.50;;
11921;SDS011;6021;51.182;3.160;2023-06-14T14:33:00;8.43;;;4.00;;
11921;SDS011;6021;51.182;3.160;2023-06-14T14:35:29;10.00;;;5.15;;
11921;SDS011;6021;51.182;3.160;2023-06-14T14:37:57;7.75;;;4.50;;
11921;SDS011;6021;51.182;3.160;2023-06-14T14:40:26;6.47;;;4.12;;
11921;SDS011;6021;51.182;3.160;2023-06-14T14:42:54;6.95;;;4.97;;
11921;SDS011;6021;51.182;3.160;2023-06-14T14:45:22;7.05;;;4.20;;
11921;SDS011;6021;51.182;3.160;2023-06-14T14:47:50;6.07;;;4.27;;
11921;SDS011;6021;51.182;3.160;2023-06-14T14:50:19;7.35;;;4.20;;
11921;SDS011;6021;51.182;3.160;2023-06-14T14:52:47;5.55;;;4.33;;
11921;SDS011;6021;51.182;3.160;2023-06-14T14:55:16;6.28;;;4.33;;
11921;SDS011;6021;51.182;3.160;2023-06-14T14:57:45;5.67;;;3.97;;
11921;SDS011;6021;51.182;3.160;2023-06-14T15:00:15;6.53;;;4.17;;
11921;SDS011;6021;51.182;3.160;2023-06-14T15:02:44;5.55;;;4.10;;
11921;SDS011;6021;51.182;3.160;2023-06-14T15:05:12;6.85;;;4.10;;
11921;SDS011;6021;51.182;3.160;2023-06-14T15:07:41;7.77;;;4.03;;
11921;SDS011;6021;51.182;3.160;2023-06-14T15:10:11;4.30;;;3.87;;
11921;SDS011;6021;51.182;3.160;2023-06-14T15:12:39;4.12;;;3.70;;
11921;SDS011;6021;51.182;3.160;2023-06-14T15:15:08;7.53;;;3.93;;
11921;SDS011;6021;51.182;3.160;2023-06-14T15:17:36;5.83;;;4.07;;
11921;SDS011;6021;51.182;3.160;2023-06-14T15:20:05;9.45;;;3.52;;
11921;SDS011;6021;51.182;3.160;2023-06-14T15:22:35;5.03;;;3.67;;
11921;SDS011;6021;51.182;3.160;2023-06-14T15:25:04;5.58;;;3.80;;
11921;SDS011;6021;51.182;3.160;2023-06-14T15:27:32;3.80;;;3.40;;
11921;SDS011;6021;51.182;3.160;2023-06-14T15:30:01;4.05;;;3.62;;
11921;SDS011;6021;51.182;3.160;2023-06-14T15:32:29;6.15;;;3.83;;